Homer, Ohio
Current Conditions -  °F | °C
As of 1:35 PM on Saturday 25 Oct 2014 (Local Time) from K4I3 Reporting Station
Clear Clear  
Wind Chill: 64°   Ceiling: Unl
Heat Index: 64°   Visibility: 10mi
Dew Point: 54°   Wind: 13mph
Humidity: 68%   Direction: 230°SW
Pressure: 29.87"   Gusts: 21mph
Location:  40.25°N, 82.51°W
Report Text: K4I3 251735Z AUTO 23011G18KT 10SM CLR 18/12 A2987 RMK AO2
Loading
Personal Weather Stations






























Interactive Weather Map
Tropical Storm Tracking
New forecast layout! Learn more

10-Day Weather Forecast

Advertisements
Track Severe Weather on mobile